sensor_id;sensor_type;location;lat;lon;timestamp;pressure;altitude;pressure_sealevel;temperature;humidity
72262;BME280;60173;52.112;8.648;2024-01-15T00:01:12;98913.22;;;1.01;99.45
72262;BME280;60173;52.112;8.648;2024-01-15T00:03:38;98911.63;;;1.05;99.17
72262;BME280;60173;52.112;8.648;2024-01-15T00:06:05;98908.97;;;1.00;99.19
72262;BME280;60173;52.112;8.648;2024-01-15T00:08:31;98916.47;;;0.87;99.52
72262;BME280;60173;52.112;8.648;2024-01-15T00:10:58;98917.03;;;0.79;100.00
72262;BME280;60173;52.112;8.648;2024-01-15T00:13:24;98916.28;;;0.53;100.00
72262;BME280;60173;52.112;8.648;2024-01-15T00:15:51;98914.94;;;0.61;100.00
72262;BME280;60173;52.112;8.648;2024-01-15T00:18:17;98912.19;;;0.92;100.00
72262;BME280;60173;52.112;8.648;2024-01-15T00:20:44;98907.84;;;1.16;99.66
72262;BME280;60173;52.112;8.648;2024-01-15T00:23:10;98912.63;;;1.19;98.75
72262;BME280;60173;52.112;8.648;2024-01-15T00:25:37;98906.69;;;1.32;97.92
72262;BME280;60173;52.112;8.648;2024-01-15T00:28:04;98912.63;;;1.19;97.97
72262;BME280;60173;52.112;8.648;2024-01-15T00:30:30;98904.06;;;1.22;97.91
72262;BME280;60173;52.112;8.648;2024-01-15T00:32:57;98884.97;;;0.84;98.39
72262;BME280;60173;52.112;8.648;2024-01-15T00:35:23;98884.47;;;0.57;100.00
72262;BME280;60173;52.112;8.648;2024-01-15T00:37:50;98882.94;;;0.35;100.00
72262;BME280;60173;52.112;8.648;2024-01-15T00:40:16;98891.44;;;0.37;100.00
72262;BME280;60173;52.112;8.648;2024-01-15T00:42:43;98892.00;;;0.34;100.00
72262;BME280;60173;52.112;8.648;2024-01-15T00:45:09;98886.38;;;0.36;100.00
72262;BME280;60173;52.112;8.648;2024-01-15T00:47:36;98881.84;;;0.36;100.00
72262;BME280;60173;52.112;8.648;2024-01-15T00:50:03;98884.81;;;0.30;100.00
72262;BME280;60173;52.112;8.648;2024-01-15T00:52:29;98882.88;;;0.56;100.00
72262;BME280;60173;52.112;8.648;2024-01-15T00:54:56;98884.47;;;0.62;100.00
72262;BME280;60173;52.112;8.648;2024-01-15T00:57:22;98866.88;;;0.51;100.00
72262;BME280;60173;52.112;8.648;2024-01-15T00:59:49;98874.88;;;0.51;100.00
72262;BME280;60173;52.112;8.648;2024-01-15T01:02:15;98880.75;;;0.37;100.00
72262;BME280;60173;52.112;8.648;2024-01-15T01:04:42;98879.19;;;0.47;100.00
72262;BME280;60173;52.112;8.648;2024-01-15T01:07:08;98884.47;;;0.52;100.00
72262;BME280;60173;52.112;8.648;2024-01-15T01:09:35;98883.13;;;0.59;100.00
72262;BME280;60173;52.112;8.648;2024-01-15T01:12:01;98881.75;;;0.72;100.00
72262;BME280;60173;52.112;8.648;2024-01-15T01:14:28;98872.09;;;0.86;98.64
72262;BME280;60173;52.112;8.648;2024-01-15T01:16:54;98884.72;;;0.71;98.79
72262;BME280;60173;52.112;8.648;2024-01-15T01:19:21;98881.19;;;0.90;98.53
72262;BME280;60173;52.112;8.648;2024-01-15T01:21:48;98876.63;;;0.91;97.83
72262;BME280;60173;52.112;8.648;2024-01-15T01:24:14;98876.63;;;0.96;97.77
72262;BME280;60173;52.112;8.648;2024-01-15T01:26:41;98873.16;;;0.90;97.87
72262;BME280;60173;52.112;8.648;2024-01-15T01:29:07;98869.97;;;0.83;97.84
72262;BME280;60173;52.112;8.648;2024-01-15T01:31:34;98868.63;;;0.81;97.91
72262;BME280;60173;52.112;8.648;2024-01-15T01:34:00;98867.91;;;0.70;97.89
72262;BME280;60173;52.112;8.648;2024-01-15T01:36:27;98862.47;;;0.90;97.98
72262;BME280;60173;52.112;8.648;2024-01-15T01:38:53;98859.59;;;0.66;97.44
72262;BME280;60173;52.112;8.648;2024-01-15T01:41:20;98868.41;;;0.77;97.29
72262;BME280;60173;52.112;8.648;2024-01-15T01:43:46;98875.88;;;0.80;97.11
72262;BME280;60173;52.112;8.648;2024-01-15T01:46:13;98868.91;;;0.84;96.86
72262;BME280;60173;52.112;8.648;2024-01-15T01:48:39;98871.00;;;0.98;96.40
72262;BME280;60173;52.112;8.648;2024-01-15T01:51:07;98860.84;;;1.00;96.17
72262;BME280;60173;52.112;8.648;2024-01-15T01:53:34;98848.78;;;1.02;95.88
72262;BME280;60173;52.112;8.648;2024-01-15T01:56:02;98854.72;;;0.89;95.64
72262;BME280;60173;52.112;8.648;2024-01-15T01:58:30;98842.75;;;0.76;95.70
72262;BME280;60173;52.112;8.648;2024-01-15T02:00:58;98844.56;;;0.91;95.94
72262;BME280;60173;52.112;8.648;2024-01-15T02:03:27;98846.66;;;0.99;95.66
72262;BME280;60173;52.112;8.648;2024-01-15T02:05:54;98849.13;;;0.90;95.60
72262;BME280;60173;52.112;8.648;2024-01-15T02:08:21;98840.31;;;0.85;95.80
72262;BME280;60173;52.112;8.648;2024-01-15T02:10:47;98846.47;;;0.80;96.11
72262;BME280;60173;52.112;8.648;2024-01-15T02:13:14;98838.47;;;0.75;96.40
72262;BME280;60173;52.112;8.648;2024-01-15T02:15:41;98837.47;;;0.51;96.84
72262;BME280;60173;52.112;8.648;2024-01-15T02:18:07;98850.84;;;0.51;97.26
72262;BME280;60173;52.112;8.648;2024-01-15T02:20:34;98852.41;;;0.62;96.76
72262;BME280;60173;52.112;8.648;2024-01-15T02:23:14;98845.19;;;0.62;96.10
72262;BME280;60173;52.112;8.648;2024-01-15T02:25:43;98845.66;;;0.85;95.86
72262;BME280;60173;52.112;8.648;2024-01-15T02:28:12;98850.78;;;0.76;96.45
72262;BME280;60173;52.112;8.648;2024-01-15T02:30:40;98851.53;;;0.87;96.15
72262;BME280;60173;52.112;8.648;2024-01-15T02:33:08;98847.56;;;0.69;96.02
72262;BME280;60173;52.112;8.648;2024-01-15T02:35:35;98848.94;;;0.61;96.48
72262;BME280;60173;52.112;8.648;2024-01-15T02:38:02;98846.22;;;0.77;96.19
72262;BME280;60173;52.112;8.648;2024-01-15T02:40:29;98844.81;;;0.89;95.45
72262;BME280;60173;52.112;8.648;2024-01-15T02:42:55;98844.88;;;0.74;95.68
72262;BME280;60173;52.112;8.648;2024-01-15T02:45:22;98843.81;;;0.75;95.71
72262;BME280;60173;52.112;8.648;2024-01-15T02:47:49;98832.84;;;0.77;95.80
72262;BME280;60173;52.112;8.648;2024-01-15T02:50:16;98836.88;;;0.69;96.19
72262;BME280;60173;52.112;8.648;2024-01-15T02:52:42;98846.47;;;0.75;96.34
72262;BME280;60173;52.112;8.648;2024-01-15T02:55:09;98840.63;;;0.73;96.91
72262;BME280;60173;52.112;8.648;2024-01-15T02:57:35;98844.88;;;0.74;96.21
72262;BME280;60173;52.112;8.648;2024-01-15T03:00:02;98846.44;;;0.85;96.24
72262;BME280;60173;52.112;8.648;2024-01-15T03:02:29;98851.25;;;0.94;95.71
72262;BME280;60173;52.112;8.648;2024-01-15T03:04:55;98842.66;;;1.02;95.62
72262;BME280;60173;52.112;8.648;2024-01-15T03:07:22;98848.59;;;0.83;95.62
72262;BME280;60173;52.112;8.648;2024-01-15T03:09:48;98845.97;;;0.78;96.36
72262;BME280;60173;52.112;8.648;2024-01-15T03:12:15;98842.97;;;0.90;96.06
72262;BME280;60173;52.112;8.648;2024-01-15T03:14:42;98841.59;;;0.98;95.75
72262;BME280;60173;52.112;8.648;2024-01-15T03:17:08;98833.63;;;0.87;95.02
72262;BME280;60173;52.112;8.648;2024-01-15T03:19:35;98843.00;;;0.85;95.99
72262;BME280;60173;52.112;8.648;2024-01-15T03:22:02;98820.50;;;0.91;95.75
72262;BME280;60173;52.112;8.648;2024-01-15T03:24:29;98835.22;;;0.83;95.50
72262;BME280;60173;52.112;8.648;2024-01-15T03:26:55;98839.22;;;0.86;95.57
72262;BME280;60173;52.112;8.648;2024-01-15T03:29:22;98833.28;;;1.04;95.29
72262;BME280;60173;52.112;8.648;2024-01-15T03:31:48;98836.13;;;1.18;94.70
72262;BME280;60173;52.112;8.648;2024-01-15T03:34:15;98827.88;;;1.09;94.45
72262;BME280;60173;52.112;8.648;2024-01-15T03:36:41;98837.03;;;0.98;95.50
72262;BME280;60173;52.112;8.648;2024-01-15T03:39:08;98841.03;;;1.01;95.91
72262;BME280;60173;52.112;8.648;2024-01-15T03:41:35;98839.72;;;0.98;95.92
72262;BME280;60173;52.112;8.648;2024-01-15T03:44:01;98837.25;;;1.07;95.46
72262;BME280;60173;52.112;8.648;2024-01-15T03:46:28;98838.25;;;1.21;95.14
72262;BME280;60173;52.112;8.648;2024-01-15T03:48:54;98853.06;;;1.03;95.08
72262;BME280;60173;52.112;8.648;2024-01-15T03:51:21;98845.84;;;1.04;95.60
72262;BME280;60173;52.112;8.648;2024-01-15T03:53:47;98849.09;;;0.96;96.18
72262;BME280;60173;52.112;8.648;2024-01-15T03:56:14;98845.59;;;1.00;96.15
72262;BME280;60173;52.112;8.648;2024-01-15T03:58:40;98854.94;;;1.03;96.27
72262;BME280;60173;52.112;8.648;2024-01-15T04:01:10;98850.69;;;0.92;96.29
72262;BME280;60173;52.112;8.648;2024-01-15T04:03:37;98846.22;;;0.82;96.61
72262;BME280;60173;52.112;8.648;2024-01-15T04:06:04;98842.16;;;0.89;96.95
72262;BME280;60173;52.112;8.648;2024-01-15T04:08:31;98843.28;;;0.78;96.83
72262;BME280;60173;52.112;8.648;2024-01-15T04:10:57;98845.66;;;0.90;96.91
72262;BME280;60173;52.112;8.648;2024-01-15T04:13:24;98840.31;;;0.90;96.19
72262;BME280;60173;52.112;8.648;2024-01-15T04:15:51;98833.56;;;1.03;96.14
72262;BME280;60173;52.112;8.648;2024-01-15T04:18:17;98845.06;;;0.98;95.82
72262;BME280;60173;52.112;8.648;2024-01-15T04:20:44;98831.13;;;1.01;96.03
72262;BME280;60173;52.112;8.648;2024-01-15T04:23:10;98828.19;;;1.08;95.64
72262;BME280;60173;52.112;8.648;2024-01-15T04:25:37;98823.63;;;1.08;95.63
72262;BME280;60173;52.112;8.648;2024-01-15T04:28:03;98818.31;;;1.03;95.09
72262;BME280;60173;52.112;8.648;2024-01-15T04:30:30;98819.16;;;0.94;95.25
72262;BME280;60173;52.112;8.648;2024-01-15T04:32:56;98799.44;;;0.84;95.56
72262;BME280;60173;52.112;8.648;2024-01-15T04:35:23;98808.94;;;1.06;95.68
72262;BME280;60173;52.112;8.648;2024-01-15T04:37:49;98821.81;;;0.99;94.75
72262;BME280;60173;52.112;8.648;2024-01-15T04:40:16;98825.31;;;0.94;94.90
72262;BME280;60173;52.112;8.648;2024-01-15T04:42:42;98815.41;;;0.89;95.02
72262;BME280;60173;52.112;8.648;2024-01-15T04:45:09;98803.69;;;0.90;95.10
72262;BME280;60173;52.112;8.648;2024-01-15T04:47:36;98811.34;;;1.07;95.08
72262;BME280;60173;52.112;8.648;2024-01-15T04:50:03;98816.50;;;0.88;95.29
72262;BME280;60173;52.112;8.648;2024-01-15T04:52:30;98812.94;;;1.08;96.12
72262;BME280;60173;52.112;8.648;2024-01-15T04:54:56;98809.50;;;1.03;95.38
72262;BME280;60173;52.112;8.648;2024-01-15T04:57:23;98806.03;;;0.97;95.65
72262;BME280;60173;52.112;8.648;2024-01-15T04:59:49;98805.41;;;1.16;95.01
72262;BME280;60173;52.112;8.648;2024-01-15T05:02:16;98795.53;;;1.16;94.16
72262;BME280;60173;52.112;8.648;2024-01-15T05:04:42;98800.25;;;1.24;94.64
72262;BME280;60173;52.112;8.648;2024-01-15T05:07:09;98801.03;;;1.30;94.02
72262;BME280;60173;52.112;8.648;2024-01-15T05:09:35;98805.69;;;1.14;94.38
72262;BME280;60173;52.112;8.648;2024-01-15T05:12:02;98796.56;;;1.20;94.79
72262;BME280;60173;52.112;8.648;2024-01-15T05:14:28;98802.16;;;1.24;94.72
72262;BME280;60173;52.112;8.648;2024-01-15T05:16:55;98797.06;;;1.27;94.32
72262;BME280;60173;52.112;8.648;2024-01-15T05:19:21;98796.34;;;1.11;94.87
72262;BME280;60173;52.112;8.648;2024-01-15T05:21:48;98788.88;;;1.08;95.31
72262;BME280;60173;52.112;8.648;2024-01-15T05:24:14;98800.44;;;0.99;95.68
72262;BME280;60173;52.112;8.648;2024-01-15T05:26:41;98793.72;;;1.01;95.66
72262;BME280;60173;52.112;8.648;2024-01-15T05:29:07;98794.97;;;1.19;95.05
72262;BME280;60173;52.112;8.648;2024-01-15T05:31:35;98799.88;;;1.02;94.63
72262;BME280;60173;52.112;8.648;2024-01-15T05:34:02;98794.47;;;1.07;95.09
72262;BME280;60173;52.112;8.648;2024-01-15T05:36:28;98791.84;;;1.02;95.40
72262;BME280;60173;52.112;8.648;2024-01-15T05:38:55;98793.13;;;1.15;94.93
72262;BME280;60173;52.112;8.648;2024-01-15T05:41:21;98792.56;;;1.12;94.43
72262;BME280;60173;52.112;8.648;2024-01-15T05:43:48;98788.06;;;1.13;94.47
72262;BME280;60173;52.112;8.648;2024-01-15T05:46:16;98781.66;;;1.04;94.42
72262;BME280;60173;52.112;8.648;2024-01-15T05:48:42;98791.44;;;0.79;95.21
72262;BME280;60173;52.112;8.648;2024-01-15T05:51:09;98787.06;;;0.99;95.46
72262;BME280;60173;52.112;8.648;2024-01-15T05:53:36;98784.44;;;0.88;95.66
72262;BME280;60173;52.112;8.648;2024-01-15T05:56:02;98787.00;;;1.04;95.30
72262;BME280;60173;52.112;8.648;2024-01-15T05:58:29;98783.84;;;1.02;95.24
72262;BME280;60173;52.112;8.648;2024-01-15T06:00:55;98794.56;;;0.97;95.52
72262;BME280;60173;52.112;8.648;2024-01-15T06:03:22;98795.31;;;1.07;95.53
72262;BME280;60173;52.112;8.648;2024-01-15T06:05:49;98795.84;;;1.04;95.41
72262;BME280;60173;52.112;8.648;2024-01-15T06:08:15;98788.88;;;1.08;95.38
72262;BME280;60173;52.112;8.648;2024-01-15T06:10:42;98783.84;;;1.02;95.25
72262;BME280;60173;52.112;8.648;2024-01-15T06:13:08;98795.63;;;0.96;95.58
72262;BME280;60173;52.112;8.648;2024-01-15T06:15:34;98788.13;;;0.98;95.38
72262;BME280;60173;52.112;8.648;2024-01-15T06:18:01;98792.97;;;0.90;95.94
72262;BME280;60173;52.112;8.648;2024-01-15T06:20:27;98798.81;;;0.98;95.82
72262;BME280;60173;52.112;8.648;2024-01-15T06:22:54;98795.63;;;0.96;95.87
72262;BME280;60173;52.112;8.648;2024-01-15T06:25:20;98788.66;;;0.95;96.22
72262;BME280;60173;52.112;8.648;2024-01-15T06:27:47;98796.66;;;1.00;95.94
72262;BME280;60173;52.112;8.648;2024-01-15T06:30:14;98797.53;;;0.90;96.29
72262;BME280;60173;52.112;8.648;2024-01-15T06:32:40;98794.53;;;1.02;96.43
72262;BME280;60173;52.112;8.648;2024-01-15T06:35:07;98791.91;;;0.86;96.46
72262;BME280;60173;52.112;8.648;2024-01-15T06:37:34;98788.19;;;0.87;97.01
72262;BME280;60173;52.112;8.648;2024-01-15T06:40:00;98796.44;;;0.91;96.95
72262;BME280;60173;52.112;8.648;2024-01-15T06:42:27;98799.91;;;0.92;96.46
72262;BME280;60173;52.112;8.648;2024-01-15T06:44:53;98798.22;;;1.11;96.05
72262;BME280;60173;52.112;8.648;2024-01-15T06:47:20;98797.47;;;1.00;96.21
72262;BME280;60173;52.112;8.648;2024-01-15T06:49:46;98794.53;;;1.02;96.79
72262;BME280;60173;52.112;8.648;2024-01-15T06:52:13;98798.03;;;0.92;97.18
72262;BME280;60173;52.112;8.648;2024-01-15T06:54:39;98802.66;;;0.81;97.96
72262;BME280;60173;52.112;8.648;2024-01-15T06:57:06;98809.28;;;0.84;98.08
72262;BME280;60173;52.112;8.648;2024-01-15T06:59:33;98815.16;;;0.91;97.99
72262;BME280;60173;52.112;8.648;2024-01-15T07:02:00;98809.50;;;0.98;97.40
72262;BME280;60173;52.112;8.648;2024-01-15T07:04:26;98813.28;;;0.92;97.14
72262;BME280;60173;52.112;8.648;2024-01-15T07:06:53;98818.69;;;0.81;97.38
72262;BME280;60173;52.112;8.648;2024-01-15T07:09:19;98818.06;;;0.95;97.26
72262;BME280;60173;52.112;8.648;2024-01-15T07:11:46;98819.16;;;0.99;96.69
72262;BME280;60173;52.112;8.648;2024-01-15T07:14:13;98808.41;;;1.04;96.64
72262;BME280;60173;52.112;8.648;2024-01-15T07:16:39;98818.06;;;1.00;96.25
72262;BME280;60173;52.112;8.648;2024-01-15T07:19:06;98819.16;;;0.99;96.38
72262;BME280;60173;52.112;8.648;2024-01-15T07:21:32;98818.84;;;1.00;96.63
72262;BME280;60173;52.112;8.648;2024-01-15T07:23:59;98815.59;;;1.13;96.08
72262;BME280;60173;52.112;8.648;2024-01-15T07:26:25;98819.59;;;1.11;95.43
72262;BME280;60173;52.112;8.648;2024-01-15T07:28:52;98824.63;;;1.23;95.75
72262;BME280;60173;52.112;8.648;2024-01-15T07:31:19;98818.75;;;1.21;95.71
72262;BME280;60173;52.112;8.648;2024-01-15T07:33:45;98816.66;;;1.12;95.46
72262;BME280;60173;52.112;8.648;2024-01-15T07:36:12;98808.47;;;0.88;95.68
72262;BME280;60173;52.112;8.648;2024-01-15T07:38:38;98814.34;;;0.96;96.72
72262;BME280;60173;52.112;8.648;2024-01-15T07:41:05;98807.38;;;1.00;96.53
72262;BME280;60173;52.112;8.648;2024-01-15T07:43:31;98817.03;;;0.90;96.56
72262;BME280;60173;52.112;8.648;2024-01-15T07:45:58;98822.09;;;0.92;96.93
72262;BME280;60173;52.112;8.648;2024-01-15T07:48:24;98810.06;;;0.89;96.35
72262;BME280;60173;52.112;8.648;2024-01-15T07:50:51;98816.25;;;0.90;96.74
72262;BME280;60173;52.112;8.648;2024-01-15T07:53:17;98819.66;;;1.01;96.47
72262;BME280;60173;52.112;8.648;2024-01-15T07:55:44;98825.72;;;1.17;95.98
72262;BME280;60173;52.112;8.648;2024-01-15T07:58:10;98823.28;;;1.25;95.16
72262;BME280;60173;52.112;8.648;2024-01-15T08:00:42;98827.50;;;1.37;94.67
72262;BME280;60173;52.112;8.648;2024-01-15T08:03:09;98826.19;;;1.29;94.17
72262;BME280;60173;52.112;8.648;2024-01-15T08:05:36;98830.00;;;1.12;94.87
72262;BME280;60173;52.112;8.648;2024-01-15T08:08:03;98826.25;;;1.19;95.26
72262;BME280;60173;52.112;8.648;2024-01-15T08:10:29;98832.47;;;1.04;95.55
72262;BME280;60173;52.112;8.648;2024-01-15T08:12:56;98834.97;;;1.34;95.11
72262;BME280;60173;52.112;8.648;2024-01-15T08:15:22;98833.81;;;1.51;93.94
72262;BME280;60173;52.112;8.648;2024-01-15T08:17:50;98841.28;;;1.54;93.10
72262;BME280;60173;52.112;8.648;2024-01-15T08:20:16;98836.00;;;1.39;92.60
72262;BME280;60173;52.112;8.648;2024-01-15T08:22:43;98836.63;;;1.30;92.80
72262;BME280;60173;52.112;8.648;2024-01-15T08:25:10;98842.44;;;1.43;93.31
72262;BME280;60173;52.112;8.648;2024-01-15T08:27:36;98839.66;;;1.13;93.29
72262;BME280;60173;52.112;8.648;2024-01-15T08:30:03;98831.88;;;1.17;94.25
72262;BME280;60173;52.112;8.648;2024-01-15T08:32:29;98826.69;;;1.36;93.86
72262;BME280;60173;52.112;8.648;2024-01-15T08:34:56;98828.06;;;1.28;93.72
72262;BME280;60173;52.112;8.648;2024-01-15T08:37:23;98828.34;;;1.27;93.62
72262;BME280;60173;52.112;8.648;2024-01-15T08:39:49;98825.72;;;1.22;93.70
72262;BME280;60173;52.112;8.648;2024-01-15T08:42:17;98829.03;;;1.48;93.97
72262;BME280;60173;52.112;8.648;2024-01-15T08:44:44;98836.94;;;1.63;92.66
72262;BME280;60173;52.112;8.648;2024-01-15T08:47:26;98835.19;;;1.83;92.38
72262;BME280;60173;52.112;8.648;2024-01-15T08:49:53;98828.63;;;1.99;91.36
72262;BME280;60173;52.112;8.648;2024-01-15T08:52:19;98825.56;;;1.81;91.27
72262;BME280;60173;52.112;8.648;2024-01-15T08:54:46;98824.22;;;1.79;90.68
72262;BME280;60173;52.112;8.648;2024-01-15T08:57:12;98836.81;;;1.78;91.37
72262;BME280;60173;52.112;8.648;2024-01-15T08:59:39;98831.16;;;1.51;91.85
72262;BME280;60173;52.112;8.648;2024-01-15T09:02:05;98833.88;;;1.41;92.71
72262;BME280;60173;52.112;8.648;2024-01-15T09:04:32;98835.53;;;1.31;93.17
72262;BME280;60173;52.112;8.648;2024-01-15T09:06:58;98826.56;;;1.56;93.15
72262;BME280;60173;52.112;8.648;2024-01-15T09:09:25;98831.06;;;1.61;92.40
72262;BME280;60173;52.112;8.648;2024-01-15T09:11:51;98837.50;;;1.60;92.60
72262;BME280;60173;52.112;8.648;2024-01-15T09:14:18;98833.13;;;1.74;92.32
72262;BME280;60173;52.112;8.648;2024-01-15T09:17:01;98836.16;;;1.63;92.66
72262;BME280;60173;52.112;8.648;2024-01-15T09:19:28;98831.03;;;1.66;92.38
72262;BME280;60173;52.112;8.648;2024-01-15T09:21:54;98838.66;;;1.49;93.23
72262;BME280;60173;52.112;8.648;2024-01-15T09:24:21;98835.41;;;1.52;93.92
72262;BME280;60173;52.112;8.648;2024-01-15T09:26:54;98832.63;;;1.67;93.47
72262;BME280;60173;52.112;8.648;2024-01-15T09:29:20;98839.63;;;1.63;93.45
72262;BME280;60173;52.112;8.648;2024-01-15T09:31:47;98837.31;;;1.46;93.38
72262;BME280;60173;52.112;8.648;2024-01-15T09:34:13;98829.66;;;1.29;94.06
72262;BME280;60173;52.112;8.648;2024-01-15T09:36:40;98834.00;;;1.20;94.61
72262;BME280;60173;52.112;8.648;2024-01-15T09:39:07;98842.56;;;1.22;94.86
72262;BME280;60173;52.112;8.648;2024-01-15T09:41:37;98824.97;;;1.06;95.17
72262;BME280;60173;52.112;8.648;2024-01-15T09:44:04;98821.25;;;1.02;96.13
72262;BME280;60173;52.112;8.648;2024-01-15T09:46:34;98827.31;;;1.18;95.89
72262;BME280;60173;52.112;8.648;2024-01-15T09:49:01;98834.75;;;1.31;95.32
72262;BME280;60173;52.112;8.648;2024-01-15T09:51:31;98825.72;;;1.61;94.40
72262;BME280;60173;52.112;8.648;2024-01-15T09:53:58;98826.97;;;1.74;93.26
72262;BME280;60173;52.112;8.648;2024-01-15T09:56:24;98823.63;;;1.87;92.22
72262;BME280;60173;52.112;8.648;2024-01-15T09:58:51;98826.13;;;2.08;91.06
72262;BME280;60173;52.112;8.648;2024-01-15T10:01:20;98823.22;;;2.04;89.59
72262;BME280;60173;52.112;8.648;2024-01-15T10:03:46;98825.53;;;1.87;89.58
72262;BME280;60173;52.112;8.648;2024-01-15T10:06:16;98833.41;;;2.02;89.54
72262;BME280;60173;52.112;8.648;2024-01-15T10:08:49;98821.91;;;2.31;88.60
72262;BME280;60173;52.112;8.648;2024-01-15T10:11:16;98819.41;;;2.39;87.34
72262;BME280;60173;52.112;8.648;2024-01-15T10:13:49;98818.91;;;2.37;88.23
72262;BME280;60173;52.112;8.648;2024-01-15T10:16:16;98811.44;;;2.58;87.63
72262;BME280;60173;52.112;8.648;2024-01-15T10:18:43;98814.00;;;2.44;86.81
72262;BME280;60173;52.112;8.648;2024-01-15T10:21:09;98815.47;;;2.32;87.24
72262;BME280;60173;52.112;8.648;2024-01-15T10:23:36;98821.28;;;1.80;88.70
72262;BME280;60173;52.112;8.648;2024-01-15T10:26:03;98834.16;;;1.78;89.37
72262;BME280;60173;52.112;8.648;2024-01-15T10:28:30;98824.44;;;1.88;90.13
72262;BME280;60173;52.112;8.648;2024-01-15T10:30:58;98827.56;;;1.66;90.42
72262;BME280;60173;52.112;8.648;2024-01-15T10:33:25;98825.59;;;1.76;90.88
72262;BME280;60173;52.112;8.648;2024-01-15T10:35:56;98822.84;;;1.87;89.19
72262;BME280;60173;52.112;8.648;2024-01-15T10:38:23;98821.91;;;2.01;89.06
72262;BME280;60173;52.112;8.648;2024-01-15T10:40:56;98814.47;;;2.22;88.14
72262;BME280;60173;52.112;8.648;2024-01-15T10:43:23;98810.41;;;2.54;87.55
72262;BME280;60173;52.112;8.648;2024-01-15T10:45:54;98804.19;;;2.35;85.95
72262;BME280;60173;52.112;8.648;2024-01-15T10:48:21;98807.44;;;2.32;86.10
72262;BME280;60173;52.112;8.648;2024-01-15T10:50:47;98815.78;;;2.25;86.30
72262;BME280;60173;52.112;8.648;2024-01-15T10:53:16;98806.44;;;2.22;86.45
72262;BME280;60173;52.112;8.648;2024-01-15T10:55:43;98801.56;;;2.30;86.38
72262;BME280;60173;52.112;8.648;2024-01-15T10:58:09;98800.94;;;2.38;85.05
72262;BME280;60173;52.112;8.648;2024-01-15T11:00:36;98813.97;;;2.20;85.65
72262;BME280;60173;52.112;8.648;2024-01-15T11:03:05;98803.56;;;2.14;85.67
72262;BME280;60173;52.112;8.648;2024-01-15T11:05:42;98806.91;;;2.30;85.91
72262;BME280;60173;52.112;8.648;2024-01-15T11:08:10;98805.13;;;2.49;85.40
72262;BME280;60173;52.112;8.648;2024-01-15T11:10:41;98804.19;;;2.59;85.24
72262;BME280;60173;52.112;8.648;2024-01-15T11:13:09;98803.34;;;2.10;85.25
72262;BME280;60173;52.112;8.648;2024-01-15T11:16:04;98796.53;;;1.94;84.79
72262;BME280;60173;52.112;8.648;2024-01-15T11:18:36;98803.56;;;2.14;85.38
72262;BME280;60173;52.112;8.648;2024-01-15T11:23:59;98798.22;;;2.67;83.14
72262;BME280;60173;52.112;8.648;2024-01-15T11:26:34;98803.97;;;2.55;82.75
72262;BME280;60173;52.112;8.648;2024-01-15T11:29:02;98803.44;;;2.29;83.70
72262;BME280;60173;52.112;8.648;2024-01-15T11:34:15;98798.69;;;2.69;82.46
72262;BME280;60173;52.112;8.648;2024-01-15T11:41:55;98784.59;;;2.63;82.99
72262;BME280;60173;52.112;8.648;2024-01-15T11:44:22;98790.13;;;2.91;82.46
72262;BME280;60173;52.112;8.648;2024-01-15T11:46:59;98784.00;;;3.28;80.94
72262;BME280;60173;52.112;8.648;2024-01-15T11:49:58;98784.97;;;2.94;81.06
72262;BME280;60173;52.112;8.648;2024-01-15T11:52:25;98784.91;;;3.00;81.61
72262;BME280;60173;52.112;8.648;2024-01-15T11:55:18;98793.44;;;2.83;80.47
72262;BME280;60173;52.112;8.648;2024-01-15T11:57:46;98788.03;;;3.26;80.94
72262;BME280;60173;52.112;8.648;2024-01-15T12:00:14;98789.72;;;3.40;80.20
72262;BME280;60173;52.112;8.648;2024-01-15T12:02:45;98782.75;;;3.21;80.05
72262;BME280;60173;52.112;8.648;2024-01-15T12:05:13;98786.97;;;3.08;79.80
72262;BME280;60173;52.112;8.648;2024-01-15T12:07:44;98790.06;;;2.96;79.99
72262;BME280;60173;52.112;8.648;2024-01-15T12:10:19;98803.47;;;2.96;80.74
72262;BME280;60173;52.112;8.648;2024-01-15T12:12:57;98794.78;;;3.04;80.88
72262;BME280;60173;52.112;8.648;2024-01-15T12:15:24;98790.13;;;2.91;81.10
72262;BME280;60173;52.112;8.648;2024-01-15T12:17:52;98786.44;;;2.87;81.58
72262;BME280;60173;52.112;8.648;2024-01-15T12:20:18;98788.13;;;2.78;81.52
72262;BME280;60173;52.112;8.648;2024-01-15T12:22:45;98794.59;;;2.77;81.45
72262;BME280;60173;52.112;8.648;2024-01-15T12:25:26;98790.75;;;2.83;80.54
72262;BME280;60173;52.112;8.648;2024-01-15T12:27:53;98786.84;;;2.51;81.51
72262;BME280;60173;52.112;8.648;2024-01-15T12:30:20;98787.59;;;2.33;81.28
72262;BME280;60173;52.112;8.648;2024-01-15T12:32:46;98793.47;;;2.35;81.54
72262;BME280;60173;52.112;8.648;2024-01-15T12:35:13;98793.13;;;2.41;82.37
72262;BME280;60173;52.112;8.648;2024-01-15T12:37:41;98793.38;;;2.16;81.42
72262;BME280;60173;52.112;8.648;2024-01-15T12:40:09;98796.06;;;2.16;82.10
72262;BME280;60173;52.112;8.648;2024-01-15T12:42:39;98794.16;;;2.45;81.76
72262;BME280;60173;52.112;8.648;2024-01-15T12:45:06;98787.53;;;2.38;81.22
72262;BME280;60173;52.112;8.648;2024-01-15T12:47:33;98784.31;;;2.41;81.93
72262;BME280;60173;52.112;8.648;2024-01-15T12:49:59;98785.66;;;2.62;81.34
72262;BME280;60173;52.112;8.648;2024-01-15T12:52:41;98790.97;;;2.67;82.00
72262;BME280;60173;52.112;8.648;2024-01-15T12:55:08;98789.19;;;2.82;81.57
72262;BME280;60173;52.112;8.648;2024-01-15T12:57:36;98786.00;;;3.17;80.72
72262;BME280;60173;52.112;8.648;2024-01-15T13:00:04;98782.94;;;2.86;80.68
72262;BME280;60173;52.112;8.648;2024-01-15T13:02:30;98788.38;;;3.00;80.97
72262;BME280;60173;52.112;8.648;2024-01-15T13:04:58;98785.06;;;2.89;80.78
72262;BME280;60173;52.112;8.648;2024-01-15T13:07:26;98783.38;;;2.93;81.42
72262;BME280;60173;52.112;8.648;2024-01-15T13:09:52;98785.59;;;3.10;81.30
72262;BME280;60173;52.112;8.648;2024-01-15T13:12:20;98789.84;;;3.11;81.20
72262;BME280;60173;52.112;8.648;2024-01-15T13:14:47;98780.19;;;2.72;82.02
72262;BME280;60173;52.112;8.648;2024-01-15T13:17:13;98779.50;;;2.62;83.05
72262;BME280;60173;52.112;8.648;2024-01-15T13:19:40;98781.56;;;2.70;82.98
72262;BME280;60173;52.112;8.648;2024-01-15T13:22:07;98777.13;;;2.79;82.34